sensor_id;sensor_type;location;lat;lon;timestamp;P1;durP1;ratioP1;P2;durP2;ratioP2
21084;SDS011;34247;50.064;19.970;2023-07-08T00:00:23;5.15;;;2.95;;
21084;SDS011;34247;50.064;19.970;2023-07-08T00:01:56;6.53;;;3.30;;
21084;SDS011;34247;50.064;19.970;2023-07-08T00:03:29;4.47;;;3.25;;
21084;SDS011;34247;50.064;19.970;2023-07-08T00:05:03;5.47;;;3.30;;
21084;SDS011;34247;50.064;19.970;2023-07-08T00:06:36;6.05;;;3.00;;
21084;SDS011;34247;50.064;19.970;2023-07-08T00:08:13;6.55;;;3.30;;
21084;SDS011;34247;50.064;19.970;2023-07-08T00:09:47;4.88;;;2.95;;
21084;SDS011;34247;50.064;19.970;2023-07-08T00:11:20;5.85;;;3.45;;
21084;SDS011;34247;50.064;19.970;2023-07-08T00:12:55;3.65;;;2.70;;
21084;SDS011;34247;50.064;19.970;2023-07-08T00:14:30;11.32;;;3.20;;
21084;SDS011;34247;50.064;19.970;2023-07-08T00:16:03;4.75;;;3.22;;
21084;SDS011;34247;50.064;19.970;2023-07-08T00:17:37;8.77;;;3.35;;
21084;SDS011;34247;50.064;19.970;2023-07-08T00:19:10;4.78;;;3.00;;
21084;SDS011;34247;50.064;19.970;2023-07-08T00:20:44;7.30;;;2.90;;
21084;SDS011;34247;50.064;19.970;2023-07-08T00:22:21;5.63;;;3.17;;
21084;SDS011;34247;50.064;19.970;2023-07-08T00:23:54;5.35;;;3.15;;
21084;SDS011;34247;50.064;19.970;2023-07-08T00:25:27;6.10;;;2.80;;
21084;SDS011;34247;50.064;19.970;2023-07-08T00:27:02;3.88;;;2.53;;
21084;SDS011;34247;50.064;19.970;2023-07-08T00:28:35;8.35;;;3.22;;
21084;SDS011;34247;50.064;19.970;2023-07-08T00:30:11;5.57;;;2.92;;
21084;SDS011;34247;50.064;19.970;2023-07-08T00:31:54;3.88;;;2.65;;
21084;SDS011;34247;50.064;19.970;2023-07-08T00:33:27;7.55;;;3.40;;
21084;SDS011;34247;50.064;19.970;2023-07-08T00:35:00;6.18;;;3.38;;
21084;SDS011;34247;50.064;19.970;2023-07-08T00:36:33;6.50;;;3.25;;
21084;SDS011;34247;50.064;19.970;2023-07-08T00:38:11;4.78;;;2.83;;
21084;SDS011;34247;50.064;19.970;2023-07-08T00:39:57;5.13;;;2.92;;
21084;SDS011;34247;50.064;19.970;2023-07-08T00:41:34;5.05;;;3.45;;
21084;SDS011;34247;50.064;19.970;2023-07-08T00:43:10;5.60;;;3.72;;
21084;SDS011;34247;50.064;19.970;2023-07-08T00:44:43;4.93;;;3.42;;
21084;SDS011;34247;50.064;19.970;2023-07-08T00:46:25;7.10;;;3.17;;
21084;SDS011;34247;50.064;19.970;2023-07-08T00:48:07;7.85;;;3.38;;
21084;SDS011;34247;50.064;19.970;2023-07-08T00:51:28;4.75;;;3.40;;
21084;SDS011;34247;50.064;19.970;2023-07-08T00:55:05;4.88;;;3.47;;
21084;SDS011;34247;50.064;19.970;2023-07-08T00:56:43;6.97;;;3.63;;
21084;SDS011;34247;50.064;19.970;2023-07-08T00:58:18;4.82;;;2.88;;
21084;SDS011;34247;50.064;19.970;2023-07-08T00:59:56;6.38;;;3.00;;
21084;SDS011;34247;50.064;19.970;2023-07-08T01:01:40;5.10;;;3.40;;
21084;SDS011;34247;50.064;19.970;2023-07-08T01:03:16;5.43;;;3.22;;
21084;SDS011;34247;50.064;19.970;2023-07-08T01:04:55;8.07;;;4.00;;
21084;SDS011;34247;50.064;19.970;2023-07-08T01:06:36;4.18;;;3.15;;
21084;SDS011;34247;50.064;19.970;2023-07-08T01:08:16;7.30;;;3.03;;
21084;SDS011;34247;50.064;19.970;2023-07-08T01:09:53;4.78;;;3.17;;
21084;SDS011;34247;50.064;19.970;2023-07-08T01:11:35;6.88;;;3.33;;
21084;SDS011;34247;50.064;19.970;2023-07-08T01:13:11;6.82;;;3.78;;
21084;SDS011;34247;50.064;19.970;2023-07-08T01:14:49;5.80;;;3.78;;
21084;SDS011;34247;50.064;19.970;2023-07-08T01:16:26;5.95;;;3.78;;
21084;SDS011;34247;50.064;19.970;2023-07-08T01:17:59;7.32;;;3.65;;
21084;SDS011;34247;50.064;19.970;2023-07-08T01:19:33;10.40;;;4.45;;
21084;SDS011;34247;50.064;19.970;2023-07-08T01:21:27;11.65;;;4.18;;
21084;SDS011;34247;50.064;19.970;2023-07-08T01:23:11;9.85;;;4.20;;
21084;SDS011;34247;50.064;19.970;2023-07-08T01:24:44;7.07;;;3.38;;
21084;SDS011;34247;50.064;19.970;2023-07-08T01:26:20;5.70;;;3.42;;
21084;SDS011;34247;50.064;19.970;2023-07-08T01:27:58;6.35;;;3.95;;
21084;SDS011;34247;50.064;19.970;2023-07-08T01:29:32;6.10;;;3.90;;
21084;SDS011;34247;50.064;19.970;2023-07-08T01:31:05;5.45;;;3.45;;
21084;SDS011;34247;50.064;19.970;2023-07-08T01:32:40;6.88;;;4.28;;
21084;SDS011;34247;50.064;19.970;2023-07-08T01:34:21;14.98;;;4.45;;
21084;SDS011;34247;50.064;19.970;2023-07-08T01:35:55;8.20;;;3.95;;
21084;SDS011;34247;50.064;19.970;2023-07-08T01:37:33;8.15;;;4.15;;
21084;SDS011;34247;50.064;19.970;2023-07-08T01:39:31;11.18;;;3.95;;
21084;SDS011;34247;50.064;19.970;2023-07-08T01:41:05;5.93;;;4.15;;
21084;SDS011;34247;50.064;19.970;2023-07-08T01:42:43;6.22;;;3.50;;
21084;SDS011;34247;50.064;19.970;2023-07-08T01:44:29;8.82;;;4.57;;
21084;SDS011;34247;50.064;19.970;2023-07-08T01:46:13;6.05;;;3.45;;
21084;SDS011;34247;50.064;19.970;2023-07-08T01:48:00;12.82;;;5.03;;
21084;SDS011;34247;50.064;19.970;2023-07-08T01:49:39;6.10;;;3.90;;
21084;SDS011;34247;50.064;19.970;2023-07-08T01:51:15;5.72;;;4.03;;
21084;SDS011;34247;50.064;19.970;2023-07-08T01:52:48;7.20;;;3.80;;
21084;SDS011;34247;50.064;19.970;2023-07-08T01:54:24;5.13;;;3.97;;
21084;SDS011;34247;50.064;19.970;2023-07-08T01:55:57;8.40;;;4.43;;
21084;SDS011;34247;50.064;19.970;2023-07-08T01:57:31;16.85;;;4.28;;
21084;SDS011;34247;50.064;19.970;2023-07-08T01:59:05;7.70;;;4.07;;
21084;SDS011;34247;50.064;19.970;2023-07-08T02:00:38;7.20;;;3.70;;
21084;SDS011;34247;50.064;19.970;2023-07-08T02:02:11;8.40;;;4.22;;
21084;SDS011;34247;50.064;19.970;2023-07-08T02:03:44;10.85;;;4.05;;
21084;SDS011;34247;50.064;19.970;2023-07-08T02:05:17;7.53;;;3.65;;
21084;SDS011;34247;50.064;19.970;2023-07-08T02:06:53;6.72;;;3.38;;
21084;SDS011;34247;50.064;19.970;2023-07-08T02:08:29;6.70;;;3.83;;
21084;SDS011;34247;50.064;19.970;2023-07-08T02:10:02;6.80;;;3.78;;
21084;SDS011;34247;50.064;19.970;2023-07-08T02:11:35;4.95;;;3.10;;
21084;SDS011;34247;50.064;19.970;2023-07-08T02:13:08;7.40;;;3.80;;
21084;SDS011;34247;50.064;19.970;2023-07-08T02:14:41;7.15;;;3.97;;
21084;SDS011;34247;50.064;19.970;2023-07-08T02:16:14;7.15;;;3.72;;
21084;SDS011;34247;50.064;19.970;2023-07-08T02:17:47;8.80;;;3.22;;
21084;SDS011;34247;50.064;19.970;2023-07-08T02:19:21;5.20;;;3.40;;
21084;SDS011;34247;50.064;19.970;2023-07-08T02:20:54;6.75;;;4.10;;
21084;SDS011;34247;50.064;19.970;2023-07-08T02:22:27;5.28;;;3.58;;
21084;SDS011;34247;50.064;19.970;2023-07-08T02:24:00;11.07;;;3.58;;
21084;SDS011;34247;50.064;19.970;2023-07-08T02:25:33;3.38;;;2.42;;
21084;SDS011;34247;50.064;19.970;2023-07-08T02:27:06;5.95;;;3.55;;
21084;SDS011;34247;50.064;19.970;2023-07-08T02:28:39;5.57;;;3.00;;
21084;SDS011;34247;50.064;19.970;2023-07-08T02:30:12;6.10;;;3.55;;
21084;SDS011;34247;50.064;19.970;2023-07-08T02:31:45;5.90;;;3.70;;
21084;SDS011;34247;50.064;19.970;2023-07-08T02:33:19;7.35;;;3.53;;
21084;SDS011;34247;50.064;19.970;2023-07-08T02:34:52;7.47;;;3.55;;
21084;SDS011;34247;50.064;19.970;2023-07-08T02:36:25;4.82;;;3.95;;
21084;SDS011;34247;50.064;19.970;2023-07-08T02:37:58;7.38;;;3.50;;
21084;SDS011;34247;50.064;19.970;2023-07-08T02:39:31;5.00;;;3.35;;
21084;SDS011;34247;50.064;19.970;2023-07-08T02:41:04;5.85;;;3.53;;
21084;SDS011;34247;50.064;19.970;2023-07-08T02:42:37;6.78;;;3.88;;
21084;SDS011;34247;50.064;19.970;2023-07-08T02:44:10;6.75;;;3.90;;
21084;SDS011;34247;50.064;19.970;2023-07-08T02:45:43;5.68;;;3.97;;
21084;SDS011;34247;50.064;19.970;2023-07-08T02:47:16;4.53;;;3.22;;
21084;SDS011;34247;50.064;19.970;2023-07-08T02:48:49;5.85;;;3.45;;
21084;SDS011;34247;50.064;19.970;2023-07-08T02:50:22;7.03;;;3.92;;
21084;SDS011;34247;50.064;19.970;2023-07-08T02:51:55;7.65;;;3.83;;
21084;SDS011;34247;50.064;19.970;2023-07-08T02:53:28;5.25;;;3.55;;
21084;SDS011;34247;50.064;19.970;2023-07-08T02:55:02;11.00;;;3.78;;
21084;SDS011;34247;50.064;19.970;2023-07-08T02:56:36;9.40;;;3.92;;
21084;SDS011;34247;50.064;19.970;2023-07-08T02:58:09;6.68;;;4.38;;
21084;SDS011;34247;50.064;19.970;2023-07-08T02:59:42;7.20;;;4.75;;
21084;SDS011;34247;50.064;19.970;2023-07-08T03:01:15;5.95;;;3.97;;
21084;SDS011;34247;50.064;19.970;2023-07-08T03:02:49;10.65;;;5.20;;
21084;SDS011;34247;50.064;19.970;2023-07-08T03:04:22;9.00;;;5.00;;
21084;SDS011;34247;50.064;19.970;2023-07-08T03:07:30;9.13;;;5.03;;
21084;SDS011;34247;50.064;19.970;2023-07-08T03:09:03;13.18;;;5.18;;
21084;SDS011;34247;50.064;19.970;2023-07-08T03:10:36;8.90;;;4.55;;
21084;SDS011;34247;50.064;19.970;2023-07-08T03:12:10;7.60;;;4.32;;
21084;SDS011;34247;50.064;19.970;2023-07-08T03:13:44;8.88;;;5.05;;
21084;SDS011;34247;50.064;19.970;2023-07-08T03:15:17;8.70;;;4.40;;
21084;SDS011;34247;50.064;19.970;2023-07-08T03:16:50;13.00;;;5.47;;
21084;SDS011;34247;50.064;19.970;2023-07-08T03:18:23;8.82;;;4.97;;
21084;SDS011;34247;50.064;19.970;2023-07-08T03:19:56;6.40;;;4.43;;
21084;SDS011;34247;50.064;19.970;2023-07-08T03:21:29;8.23;;;4.22;;
21084;SDS011;34247;50.064;19.970;2023-07-08T03:23:02;9.50;;;4.30;;
21084;SDS011;34247;50.064;19.970;2023-07-08T03:24:35;11.77;;;5.10;;
21084;SDS011;34247;50.064;19.970;2023-07-08T03:26:13;10.38;;;4.85;;
21084;SDS011;34247;50.064;19.970;2023-07-08T03:27:52;8.60;;;4.70;;
21084;SDS011;34247;50.064;19.970;2023-07-08T03:29:25;5.50;;;3.97;;
21084;SDS011;34247;50.064;19.970;2023-07-08T03:30:59;8.13;;;4.57;;
21084;SDS011;34247;50.064;19.970;2023-07-08T03:32:32;8.13;;;4.25;;
21084;SDS011;34247;50.064;19.970;2023-07-08T03:34:07;7.80;;;4.85;;
21084;SDS011;34247;50.064;19.970;2023-07-08T03:35:43;9.05;;;4.63;;
21084;SDS011;34247;50.064;19.970;2023-07-08T03:37:17;11.27;;;4.63;;
21084;SDS011;34247;50.064;19.970;2023-07-08T03:38:50;7.00;;;3.75;;
21084;SDS011;34247;50.064;19.970;2023-07-08T03:40:25;10.70;;;5.30;;
21084;SDS011;34247;50.064;19.970;2023-07-08T03:41:59;9.52;;;4.15;;
21084;SDS011;34247;50.064;19.970;2023-07-08T03:43:32;8.23;;;4.28;;
21084;SDS011;34247;50.064;19.970;2023-07-08T03:45:05;6.15;;;4.18;;
21084;SDS011;34247;50.064;19.970;2023-07-08T03:46:39;7.78;;;4.82;;
21084;SDS011;34247;50.064;19.970;2023-07-08T03:48:12;8.70;;;4.07;;
21084;SDS011;34247;50.064;19.970;2023-07-08T03:49:45;8.93;;;5.10;;
21084;SDS011;34247;50.064;19.970;2023-07-08T03:51:26;8.27;;;3.97;;
21084;SDS011;34247;50.064;19.970;2023-07-08T03:53:06;8.45;;;4.55;;
21084;SDS011;34247;50.064;19.970;2023-07-08T03:54:41;7.82;;;4.28;;
21084;SDS011;34247;50.064;19.970;2023-07-08T03:56:14;8.85;;;4.45;;
21084;SDS011;34247;50.064;19.970;2023-07-08T03:57:47;8.45;;;4.80;;
21084;SDS011;34247;50.064;19.970;2023-07-08T05:08:47;8.70;;;3.30;;
21084;SDS011;34247;50.064;19.970;2023-07-08T05:10:21;5.18;;;3.40;;
21084;SDS011;34247;50.064;19.970;2023-07-08T05:11:54;4.20;;;3.38;;
21084;SDS011;34247;50.064;19.970;2023-07-08T05:13:27;7.65;;;3.47;;
21084;SDS011;34247;50.064;19.970;2023-07-08T05:15:00;8.50;;;3.40;;
21084;SDS011;34247;50.064;19.970;2023-07-08T05:16:34;4.35;;;3.00;;
21084;SDS011;34247;50.064;19.970;2023-07-08T05:18:07;5.05;;;3.22;;
21084;SDS011;34247;50.064;19.970;2023-07-08T05:19:40;6.95;;;3.15;;
21084;SDS011;34247;50.064;19.970;2023-07-08T05:21:14;5.20;;;3.20;;
21084;SDS011;34247;50.064;19.970;2023-07-08T05:22:48;5.22;;;2.80;;
21084;SDS011;34247;50.064;19.970;2023-07-08T05:24:21;4.70;;;3.08;;
21084;SDS011;34247;50.064;19.970;2023-07-08T05:25:54;6.05;;;3.17;;
21084;SDS011;34247;50.064;19.970;2023-07-08T05:27:31;4.68;;;3.33;;
21084;SDS011;34247;50.064;19.970;2023-07-08T05:29:04;4.75;;;3.38;;
21084;SDS011;34247;50.064;19.970;2023-07-08T05:30:39;5.05;;;3.35;;
21084;SDS011;34247;50.064;19.970;2023-07-08T05:32:13;6.25;;;3.05;;
21084;SDS011;34247;50.064;19.970;2023-07-08T05:33:47;5.75;;;2.90;;
21084;SDS011;34247;50.064;19.970;2023-07-08T05:35:20;4.05;;;3.03;;
21084;SDS011;34247;50.064;19.970;2023-07-08T05:36:53;3.75;;;3.00;;
21084;SDS011;34247;50.064;19.970;2023-07-08T05:38:26;3.92;;;2.97;;
21084;SDS011;34247;50.064;19.970;2023-07-08T05:39:59;4.93;;;2.95;;
21084;SDS011;34247;50.064;19.970;2023-07-08T05:41:32;4.95;;;3.28;;
21084;SDS011;34247;50.064;19.970;2023-07-08T05:43:06;6.10;;;3.00;;
21084;SDS011;34247;50.064;19.970;2023-07-08T05:44:39;4.35;;;2.60;;
21084;SDS011;34247;50.064;19.970;2023-07-08T05:46:12;5.00;;;3.08;;
21084;SDS011;34247;50.064;19.970;2023-07-08T05:47:45;4.43;;;2.92;;
21084;SDS011;34247;50.064;19.970;2023-07-08T05:49:18;5.28;;;3.13;;
21084;SDS011;34247;50.064;19.970;2023-07-08T05:50:51;6.13;;;2.70;;
21084;SDS011;34247;50.064;19.970;2023-07-08T05:52:25;6.70;;;2.78;;
21084;SDS011;34247;50.064;19.970;2023-07-08T05:53:58;2.92;;;2.60;;
21084;SDS011;34247;50.064;19.970;2023-07-08T05:55:31;5.20;;;2.70;;
21084;SDS011;34247;50.064;19.970;2023-07-08T05:57:06;3.05;;;2.17;;
21084;SDS011;34247;50.064;19.970;2023-07-08T05:58:41;4.18;;;2.78;;
21084;SDS011;34247;50.064;19.970;2023-07-08T06:00:14;5.32;;;2.83;;
21084;SDS011;34247;50.064;19.970;2023-07-08T06:02:05;7.22;;;2.83;;
21084;SDS011;34247;50.064;19.970;2023-07-08T06:03:41;4.13;;;2.97;;
21084;SDS011;34247;50.064;19.970;2023-07-08T06:05:14;4.70;;;2.90;;
21084;SDS011;34247;50.064;19.970;2023-07-08T06:06:47;6.25;;;2.90;;
21084;SDS011;34247;50.064;19.970;2023-07-08T06:08:20;3.78;;;2.33;;
21084;SDS011;34247;50.064;19.970;2023-07-08T06:09:54;6.28;;;2.92;;
21084;SDS011;34247;50.064;19.970;2023-07-08T06:11:27;4.15;;;2.90;;
21084;SDS011;34247;50.064;19.970;2023-07-08T06:13:04;3.58;;;2.33;;
21084;SDS011;34247;50.064;19.970;2023-07-08T06:14:37;2.97;;;2.28;;
21084;SDS011;34247;50.064;19.970;2023-07-08T06:16:10;6.82;;;2.65;;
21084;SDS011;34247;50.064;19.970;2023-07-08T06:17:43;5.43;;;2.63;;
21084;SDS011;34247;50.064;19.970;2023-07-08T06:19:16;5.57;;;2.70;;
21084;SDS011;34247;50.064;19.970;2023-07-08T06:20:52;8.05;;;2.83;;
21084;SDS011;34247;50.064;19.970;2023-07-08T06:22:28;3.65;;;2.38;;
21084;SDS011;34247;50.064;19.970;2023-07-08T06:24:18;3.97;;;2.53;;
21084;SDS011;34247;50.064;19.970;2023-07-08T06:25:51;4.22;;;2.50;;
21084;SDS011;34247;50.064;19.970;2023-07-08T06:27:24;5.70;;;2.92;;
21084;SDS011;34247;50.064;19.970;2023-07-08T06:28:58;8.90;;;2.65;;
21084;SDS011;34247;50.064;19.970;2023-07-08T06:30:31;3.30;;;2.90;;
21084;SDS011;34247;50.064;19.970;2023-07-08T06:32:04;4.70;;;2.30;;
21084;SDS011;34247;50.064;19.970;2023-07-08T06:33:38;3.85;;;2.38;;
21084;SDS011;34247;50.064;19.970;2023-07-08T06:35:11;2.90;;;2.05;;
21084;SDS011;34247;50.064;19.970;2023-07-08T06:36:44;4.88;;;2.40;;
21084;SDS011;34247;50.064;19.970;2023-07-08T06:38:17;4.25;;;2.22;;
21084;SDS011;34247;50.064;19.970;2023-07-08T06:39:50;5.13;;;2.30;;
21084;SDS011;34247;50.064;19.970;2023-07-08T06:41:23;4.50;;;2.15;;
21084;SDS011;34247;50.064;19.970;2023-07-08T06:42:56;3.85;;;2.85;;
21084;SDS011;34247;50.064;19.970;2023-07-08T06:44:30;3.80;;;2.55;;
21084;SDS011;34247;50.064;19.970;2023-07-08T06:46:03;3.38;;;2.50;;
21084;SDS011;34247;50.064;19.970;2023-07-08T06:47:36;4.57;;;2.03;;
21084;SDS011;34247;50.064;19.970;2023-07-08T06:49:09;3.10;;;2.00;;
21084;SDS011;34247;50.064;19.970;2023-07-08T06:50:42;4.20;;;2.10;;
21084;SDS011;34247;50.064;19.970;2023-07-08T06:52:18;3.88;;;2.25;;
21084;SDS011;34247;50.064;19.970;2023-07-08T06:53:51;5.57;;;2.20;;
21084;SDS011;34247;50.064;19.970;2023-07-08T06:55:24;3.08;;;2.20;;
21084;SDS011;34247;50.064;19.970;2023-07-08T06:56:58;3.67;;;2.13;;
21084;SDS011;34247;50.064;19.970;2023-07-08T06:58:31;2.00;;;1.85;;
21084;SDS011;34247;50.064;19.970;2023-07-08T07:00:05;3.22;;;2.05;;
21084;SDS011;34247;50.064;19.970;2023-07-08T07:01:43;3.75;;;2.33;;
21084;SDS011;34247;50.064;19.970;2023-07-08T07:03:16;4.50;;;2.30;;
21084;SDS011;34247;50.064;19.970;2023-07-08T07:04:49;3.85;;;2.10;;
21084;SDS011;34247;50.064;19.970;2023-07-08T07:06:22;2.78;;;2.38;;
21084;SDS011;34247;50.064;19.970;2023-07-08T07:07:55;2.33;;;1.95;;
21084;SDS011;34247;50.064;19.970;2023-07-08T07:09:28;2.03;;;1.73;;
21084;SDS011;34247;50.064;19.970;2023-07-08T07:11:01;5.18;;;2.20;;
21084;SDS011;34247;50.064;19.970;2023-07-08T07:12:35;1.98;;;1.77;;
21084;SDS011;34247;50.064;19.970;2023-07-08T07:14:08;3.05;;;1.65;;
21084;SDS011;34247;50.064;19.970;2023-07-08T07:15:44;3.00;;;1.80;;
21084;SDS011;34247;50.064;19.970;2023-07-08T07:17:23;4.22;;;1.70;;
21084;SDS011;34247;50.064;19.970;2023-07-08T07:18:57;3.47;;;1.92;;
21084;SDS011;34247;50.064;19.970;2023-07-08T07:20:30;4.10;;;2.03;;
21084;SDS011;34247;50.064;19.970;2023-07-08T07:22:04;3.67;;;2.08;;
21084;SDS011;34247;50.064;19.970;2023-07-08T07:23:38;2.05;;;1.90;;
21084;SDS011;34247;50.064;19.970;2023-07-08T07:25:11;3.10;;;1.65;;
21084;SDS011;34247;50.064;19.970;2023-07-08T07:26:44;3.20;;;1.58;;
21084;SDS011;34247;50.064;19.970;2023-07-08T07:28:17;2.22;;;1.85;;
21084;SDS011;34247;50.064;19.970;2023-07-08T07:29:50;2.33;;;1.52;;
21084;SDS011;34247;50.064;19.970;2023-07-08T07:31:24;2.10;;;1.67;;
21084;SDS011;34247;50.064;19.970;2023-07-08T07:33:00;5.35;;;2.05;;
21084;SDS011;34247;50.064;19.970;2023-07-08T07:34:34;1.58;;;1.40;;
21084;SDS011;34247;50.064;19.970;2023-07-08T07:36:07;1.63;;;1.48;;
21084;SDS011;34247;50.064;19.970;2023-07-08T07:37:41;2.03;;;1.70;;
21084;SDS011;34247;50.064;19.970;2023-07-08T07:39:15;2.10;;;1.67;;
21084;SDS011;34247;50.064;19.970;2023-07-08T07:40:48;2.08;;;1.70;;
21084;SDS011;34247;50.064;19.970;2023-07-08T07:42:26;6.03;;;2.15;;
21084;SDS011;34247;50.064;19.970;2023-07-08T07:44:00;2.05;;;1.63;;
21084;SDS011;34247;50.064;19.970;2023-07-08T07:45:33;2.03;;;1.58;;
21084;SDS011;34247;50.064;19.970;2023-07-08T07:47:07;2.05;;;1.67;;
21084;SDS011;34247;50.064;19.970;2023-07-08T07:48:41;2.00;;;1.55;;
21084;SDS011;34247;50.064;19.970;2023-07-08T07:50:14;3.53;;;1.65;;
21084;SDS011;34247;50.064;19.970;2023-07-08T07:51:47;2.50;;;1.70;;
21084;SDS011;34247;50.064;19.970;2023-07-08T07:53:20;1.40;;;1.30;;
21084;SDS011;34247;50.064;19.970;2023-07-08T07:54:54;3.30;;;1.58;;
21084;SDS011;34247;50.064;19.970;2023-07-08T07:56:28;2.90;;;1.50;;
21084;SDS011;34247;50.064;19.970;2023-07-08T07:58:01;3.45;;;2.10;;
21084;SDS011;34247;50.064;19.970;2023-07-08T07:59:34;1.85;;;1.48;;
21084;SDS011;34247;50.064;19.970;2023-07-08T08:01:07;3.42;;;1.42;;
21084;SDS011;34247;50.064;19.970;2023-07-08T08:02:40;1.98;;;1.50;;
21084;SDS011;34247;50.064;19.970;2023-07-08T08:04:14;2.55;;;1.48;;
21084;SDS011;34247;50.064;19.970;2023-07-08T08:05:47;1.70;;;1.60;;
21084;SDS011;34247;50.064;19.970;2023-07-08T08:07:21;4.03;;;1.58;;
21084;SDS011;34247;50.064;19.970;2023-07-08T08:08:54;1.40;;;1.30;;
21084;SDS011;34247;50.064;19.970;2023-07-08T08:10:27;1.90;;;1.40;;
21084;SDS011;34247;50.064;19.970;2023-07-08T08:12:01;1.92;;;1.23;;
21084;SDS011;34247;50.064;19.970;2023-07-08T08:13:36;2.72;;;1.20;;
21084;SDS011;34247;50.064;19.970;2023-07-08T08:15:10;3.17;;;1.70;;
21084;SDS011;34247;50.064;19.970;2023-07-08T08:16:43;2.72;;;1.48;;
21084;SDS011;34247;50.064;19.970;2023-07-08T08:18:16;1.73;;;1.48;;
21084;SDS011;34247;50.064;19.970;2023-07-08T08:19:49;1.40;;;1.30;;
21084;SDS011;34247;50.064;19.970;2023-07-08T08:21:22;1.77;;;1.20;;
21084;SDS011;34247;50.064;19.970;2023-07-08T08:22:55;2.08;;;1.40;;
21084;SDS011;34247;50.064;19.970;2023-07-08T08:24:28;1.55;;;1.45;;
21084;SDS011;34247;50.064;19.970;2023-07-08T08:26:01;2.25;;;1.30;;
21084;SDS011;34247;50.064;19.970;2023-07-08T08:27:34;2.28;;;1.08;;
21084;SDS011;34247;50.064;19.970;2023-07-08T08:29:08;2.72;;;1.45;;
21084;SDS011;34247;50.064;19.970;2023-07-08T08:31:00;2.40;;;1.40;;
21084;SDS011;34247;50.064;19.970;2023-07-08T08:32:33;2.22;;;1.30;;
21084;SDS011;34247;50.064;19.970;2023-07-08T08:34:06;1.55;;;1.20;;
21084;SDS011;34247;50.064;19.970;2023-07-08T08:35:39;1.88;;;1.45;;
21084;SDS011;34247;50.064;19.970;2023-07-08T08:37:15;2.65;;;1.13;;
21084;SDS011;34247;50.064;19.970;2023-07-08T08:38:48;1.38;;;1.27;;
21084;SDS011;34247;50.064;19.970;2023-07-08T08:40:22;1.17;;;1.10;;
21084;SDS011;34247;50.064;19.970;2023-07-08T08:41:55;1.20;;;1.10;;
21084;SDS011;34247;50.064;19.970;2023-07-08T08:43:36;4.95;;;1.00;;
21084;SDS011;34247;50.064;19.970;2023-07-08T08:45:11;1.73;;;1.25;;
21084;SDS011;34247;50.064;19.970;2023-07-08T08:48:36;2.22;;;1.05;;
21084;SDS011;34247;50.064;19.970;2023-07-08T08:50:53;1.27;;;1.17;;
21084;SDS011;34247;50.064;19.970;2023-07-08T08:52:32;2.10;;;1.20;;
21084;SDS011;34247;50.064;19.970;2023-07-08T08:54:06;1.35;;;1.00;;
21084;SDS011;34247;50.064;19.970;2023-07-08T08:55:40;1.40;;;1.30;;
21084;SDS011;34247;50.064;19.970;2023-07-08T08:57:36;2.42;;;1.30;;
21084;SDS011;34247;50.064;19.970;2023-07-08T09:01:13;1.50;;;1.40;;
21084;SDS011;34247;50.064;19.970;2023-07-08T09:04:29;1.40;;;1.30;;
21084;SDS011;34247;50.064;19.970;2023-07-08T09:11:42;1.42;;;1.33;;
21084;SDS011;34247;50.064;19.970;2023-07-08T09:13:36;1.55;;;1.23;;
21084;SDS011;34247;50.064;19.970;2023-07-08T09:15:14;1.30;;;1.20;;
21084;SDS011;34247;50.064;19.970;2023-07-08T09:16:57;1.73;;;1.50;;
21084;SDS011;34247;50.064;19.970;2023-07-08T09:20:43;1.77;;;1.33;;
21084;SDS011;34247;50.064;19.970;2023-07-08T09:23:02;1.60;;;1.50;;
21084;SDS011;34247;50.064;19.970;2023-07-08T09:24:27;3.08;;;1.77;;
21084;SDS011;34247;50.064;19.970;2023-07-08T09:26:27;1.35;;;1.20;;
21084;SDS011;34247;50.064;19.970;2023-07-08T09:28:02;6.20;;;1.25;;
21084;SDS011;34247;50.064;19.970;2023-07-08T09:29:38;2.10;;;1.60;;
21084;SDS011;34247;50.064;19.970;2023-07-08T09:31:24;2.45;;;1.55;;
21084;SDS011;34247;50.064;19.970;2023-07-08T09:33:03;1.42;;;1.33;;
21084;SDS011;34247;50.064;19.970;2023-07-08T09:35:01;1.55;;;1.45;;
21084;SDS011;34247;50.064;19.970;2023-07-08T09:36:40;1.70;;;1.50;;
21084;SDS011;34247;50.064;19.970;2023-07-08T09:38:21;5.53;;;1.25;;
21084;SDS011;34247;50.064;19.970;2023-07-08T09:39:56;2.35;;;1.30;;
21084;SDS011;34247;50.064;19.970;2023-07-08T09:41:34;1.65;;;1.55;;
21084;SDS011;34247;50.064;19.970;2023-07-08T09:45:12;4.90;;;1.25;;
21084;SDS011;34247;50.064;19.970;2023-07-08T09:46:52;2.03;;;1.73;;
21084;SDS011;34247;50.064;19.970;2023-07-08T09:48:36;1.75;;;1.58;;
21084;SDS011;34247;50.064;19.970;2023-07-08T09:50:21;1.95;;;1.23;;
21084;SDS011;34247;50.064;19.970;2023-07-08T09:52:01;1.77;;;1.65;;
21084;SDS011;34247;50.064;19.970;2023-07-08T09:53:40;2.55;;;1.95;;
21084;SDS011;34247;50.064;19.970;2023-07-08T09:55:25;3.28;;;1.52;;
21084;SDS011;34247;50.064;19.970;2023-07-08T09:57:03;2.35;;;1.70;;
21084;SDS011;34247;50.064;19.970;2023-07-08T10:44:21;1.65;;;1.40;;
21084;SDS011;34247;50.064;19.970;2023-07-08T10:52:22;2.35;;;2.15;;
21084;SDS011;34247;50.064;19.970;2023-07-08T10:54:24;2.85;;;2.33;;
21084;SDS011;34247;50.064;19.970;2023-07-08T11:07:23;6.22;;;2.15;;
21084;SDS011;34247;50.064;19.970;2023-07-08T11:09:21;4.68;;;2.47;;
21084;SDS011;34247;50.064;19.970;2023-07-08T11:13:06;2.33;;;2.10;;
21084;SDS011;34247;50.064;19.970;2023-07-08T11:17:20;3.90;;;2.40;;
21084;SDS011;34247;50.064;19.970;2023-07-08T11:19:08;2.20;;;2.00;;
21084;SDS011;34247;50.064;19.970;2023-07-08T11:21:04;2.20;;;2.00;;
21084;SDS011;34247;50.064;19.970;2023-07-08T11:22:49;3.85;;;2.03;;
21084;SDS011;34247;50.064;19.970;2023-07-08T11:24:40;1.73;;;1.63;;
21084;SDS011;34247;50.064;19.970;2023-07-08T11:28:12;2.17;;;1.80;;
21084;SDS011;34247;50.064;19.970;2023-07-08T11:29:59;2.00;;;1.45;;
21084;SDS011;34247;50.064;19.970;2023-07-08T11:31:44;1.75;;;1.65;;
21084;SDS011;34247;50.064;19.970;2023-07-08T11:33:21;2.60;;;1.67;;
21084;SDS011;34247;50.064;19.970;2023-07-08T11:34:57;2.45;;;1.60;;
21084;SDS011;34247;50.064;19.970;2023-07-08T11:36:36;2.22;;;1.60;;
21084;SDS011;34247;50.064;19.970;2023-07-08T11:38:18;2.92;;;1.60;;
21084;SDS011;34247;50.064;19.970;2023-07-08T11:40:09;3.08;;;1.40;;
21084;SDS011;34247;50.064;19.970;2023-07-08T11:41:55;2.85;;;1.55;;
21084;SDS011;34247;50.064;19.970;2023-07-08T11:43:58;1.33;;;1.23;;
21084;SDS011;34247;50.064;19.970;2023-07-08T11:45:39;1.88;;;1.70;;
21084;SDS011;34247;50.064;19.970;2023-07-08T11:49:06;4.38;;;1.50;;
21084;SDS011;34247;50.064;19.970;2023-07-08T11:50:47;1.75;;;1.48;;
21084;SDS011;34247;50.064;19.970;2023-07-08T11:52:22;1.48;;;1.20;;
21084;SDS011;34247;50.064;19.970;2023-07-08T11:54:00;2.80;;;1.63;;
21084;SDS011;34247;50.064;19.970;2023-07-08T11:57:37;1.80;;;1.30;;
21084;SDS011;34247;50.064;19.970;2023-07-08T11:59:18;3.90;;;1.38;;
21084;SDS011;34247;50.064;19.970;2023-07-08T12:00:56;1.90;;;1.40;;
21084;SDS011;34247;50.064;19.970;2023-07-08T12:02:53;2.55;;;1.70;;
21084;SDS011;34247;50.064;19.970;2023-07-08T12:04:31;2.35;;;1.38;;
21084;SDS011;34247;50.064;19.970;2023-07-08T12:08:00;3.72;;;1.92;;
21084;SDS011;34247;50.064;19.970;2023-07-08T12:09:56;2.38;;;1.50;;
21084;SDS011;34247;50.064;19.970;2023-07-08T12:12:14;2.15;;;1.70;;
21084;SDS011;34247;50.064;19.970;2023-07-08T12:14:02;3.83;;;1.80;;
21084;SDS011;34247;50.064;19.970;2023-07-08T12:15:37;1.67;;;1.17;;
21084;SDS011;34247;50.064;19.970;2023-07-08T12:17:11;1.42;;;1.23;;